Euskara    
Meteorología y climatología de Navarra
Datos de la estación - Meteo Navarra

Estación de Tudela (Montes del Cierzo) GN

Altitud 314 m.


Datos desde el 14/01/2021 hasta el 15/01/2021 en horario solar
Los datos son PROVISIONALES

Anterior Página 1 de 1 Siguiente Descargar: Formato para Excel 2000 o superior   Formato csv   Formato para OpenOffice Calc
Fecha Temperatura Humedad relativa Radiación global Insolación Precipitación Vel. viento 10 m Vel. viento 10 m Dir. viento 10 m
°C % W/m² s l/m² m/s km/h °
14/01/2021 0:00 3.8 79 0.0 0 0.0 7.1 25.6 307
14/01/2021 0:10 3.8 78 0.0 0 0.0 7.5 26.9 306
14/01/2021 0:20 3.9 78 0.0 0 0.0 6.6 23.9 309
14/01/2021 0:30 3.9 78 0.0 0 0.0 6.2 22.3 308
14/01/2021 0:40 3.8 78 0.0 0 0.0 6.1 21.9 308
14/01/2021 0:50 3.8 78 0.0 0 0.0 6.3 22.7 305
14/01/2021 1:00 3.8 78 0.0 0 0.0 6.5 23.2 306
14/01/2021 1:10 4.0 77 0.0 0 0.0 6.8 24.3 307
14/01/2021 1:20 3.8 77 0.0 0 0.0 6.4 23.0 304
14/01/2021 1:30 3.6 78 0.0 0 0.0 6.4 23.1 303
14/01/2021 1:40 3.7 78 0.0 0 0.0 6.5 23.4 303
14/01/2021 1:50 3.7 77 0.0 0 0.0 6.9 24.8 304
14/01/2021 2:00 3.6 77 0.0 0 0.0 7.2 25.8 305
14/01/2021 2:10 3.6 77 0.0 0 0.0 6.8 24.4 305
14/01/2021 2:20 3.6 77 0.0 0 0.0 7.3 26.3 307
14/01/2021 2:30 3.6 77 0.0 0 0.0 7.4 26.6 308
14/01/2021 2:40 3.5 78 0.0 0 0.0 6.9 24.8 306
14/01/2021 2:50 3.3 78 0.0 0 0.0 5.9 21.2 306
14/01/2021 3:00 3.3 79 0.0 0 0.0 6.0 21.4 307
14/01/2021 3:10 3.2 79 0.0 0 0.0 5.6 20.3 305
14/01/2021 3:20 3.1 79 0.0 0 0.0 5.4 19.5 303
14/01/2021 3:30 3.1 79 0.0 0 0.0 5.5 19.7 303
14/01/2021 3:40 3.0 79 0.0 0 0.0 5.8 20.9 302
14/01/2021 3:50 2.8 79 0.0 0 0.0 5.4 19.5 300
14/01/2021 4:00 2.7 80 0.0 0 0.0 5.7 20.7 304
14/01/2021 4:10 2.6 80 0.0 0 0.0 5.4 19.5 306
14/01/2021 4:20 2.8 80 0.0 0 0.0 5.4 19.5 303
14/01/2021 4:30 2.7 80 0.0 0 0.0 5.4 19.5 301
14/01/2021 4:40 3.1 80 0.0 0 0.0 6.1 22.0 304
14/01/2021 4:50 3.5 77 0.0 0 0.0 6.4 23.2 307
14/01/2021 5:00 3.6 77 0.0 0 0.0 6.2 22.2 304
14/01/2021 5:10 3.7 76 0.0 0 0.0 6.6 23.7 301
14/01/2021 5:20 3.7 76 0.0 0 0.0 6.5 23.5 302
14/01/2021 5:30 3.5 77 0.0 0 0.0 6.2 22.4 302
14/01/2021 5:40 3.4 77 0.0 0 0.0 6.8 24.6 304
14/01/2021 5:50 3.4 77 0.0 0 0.0 6.5 23.3 306
14/01/2021 6:00 3.0 78 0.0 0 0.0 6.3 22.8 304
14/01/2021 6:10 2.9 79 0.0 0 0.0 6.2 22.3 303
14/01/2021 6:20 3.1 79 0.0 0 0.0 5.8 20.7 299
14/01/2021 6:30 3.1 79 0.0 0 0.0 6.0 21.5 299
14/01/2021 6:40 3.4 78 0.0 0 0.0 5.7 20.4 299
14/01/2021 6:50 3.2 78 0.0 0 0.0 6.3 22.8 299
14/01/2021 7:00 3.4 78 0.0 0 0.0 6.0 21.5 296
14/01/2021 7:10 3.5 78 0.0 0 0.0 5.6 20.3 296
14/01/2021 7:20 3.6 77 0.0 0 0.0 6.0 21.5 295
14/01/2021 7:30 3.8 76 0.0 0 0.0 5.5 19.9 293
14/01/2021 7:40 4.0 76 0.0 0 0.0 5.5 19.8 290
14/01/2021 7:50 4.0 75 15.0 0 0.0 5.3 18.9 290
14/01/2021 8:00 4.1 75 37.2 462 0.0 5.3 19.1 289
14/01/2021 8:10 4.1 75 30.8 34 0.0 5.2 18.8 296
14/01/2021 8:20 4.0 74 40.3 8 0.0 5.7 20.7 303
14/01/2021 8:30 3.9 75 67.4 230 0.0 6.3 22.7 304
14/01/2021 8:40 4.3 73 152.4 600 0.0 6.8 24.3 306
14/01/2021 8:50 4.5 72 169.4 600 0.0 7.9 28.3 310
14/01/2021 9:00 4.7 71 166.0 600 0.0 8.3 29.8 308
14/01/2021 9:10 4.7 71 216.2 600 0.0 7.8 28.2 308
14/01/2021 9:20 5.0 70 228.5 600 0.0 7.2 26.0 308
14/01/2021 9:30 5.4 69 275.5 600 0.0 7.5 26.9 309
14/01/2021 9:40 5.7 68 296.1 600 0.0 7.7 27.9 310
14/01/2021 9:50 6.0 67 325.9 600 0.0 6.8 24.6 311
14/01/2021 10:00 6.4 66 348.2 600 0.0 6.5 23.3 309
14/01/2021 10:10 6.9 66 368.2 600 0.0 5.9 21.1 311
14/01/2021 10:20 7.2 64 387.4 600 0.0 6.6 23.7 313
14/01/2021 10:30 7.3 64 398.3 600 0.0 7.4 26.7 315
14/01/2021 10:40 7.4 64 400.6 600 0.0 6.5 23.5 317
14/01/2021 10:50 7.8 63 423.9 600 0.0 6.4 22.9 318
14/01/2021 11:00 7.9 62 435.9 600 0.0 7.4 26.6 317
14/01/2021 11:10 8.2 62 447.8 600 0.0 7.4 26.7 318
14/01/2021 11:20 8.5 61 460.2 600 0.0 6.8 24.4 315
14/01/2021 11:30 8.7 60 474.0 600 0.0 7.7 27.7 314
14/01/2021 11:40 8.9 60 461.6 600 0.0 6.7 24.0 314
14/01/2021 11:50 9.1 59 483.5 600 0.0 6.6 23.7 316
14/01/2021 12:00 9.6 58 496.7 600 0.0 6.7 24.2 319
14/01/2021 12:10 9.5 58 434.5 600 0.0 7.7 27.8 318
14/01/2021 12:20 9.2 59 450.8 600 0.0 7.9 28.5 311
14/01/2021 12:30 9.3 59 459.5 600 0.0 7.3 26.3 313
14/01/2021 12:40 9.6 58 451.8 600 0.0 7.4 26.6 309
14/01/2021 12:50 9.9 58 480.8 600 0.0 7.1 25.5 309
14/01/2021 13:00 10.0 58 474.8 600 0.0 7.4 26.7 311
14/01/2021 13:10 10.3 57 463.2 600 0.0 6.8 24.6 312
14/01/2021 13:20 10.3 57 453.2 600 0.0 6.5 23.3 311
14/01/2021 13:30 10.5 56 439.4 600 0.0 6.1 22.0 317
14/01/2021 13:40 10.5 56 429.6 600 0.0 6.8 24.3 316
14/01/2021 13:50 10.5 55 414.3 600 0.0 7.0 25.3 313
14/01/2021 14:00 10.5 55 396.1 600 0.0 6.7 24.3 313
14/01/2021 14:10 10.7 54 377.5 600 0.0 6.2 22.3 318
14/01/2021 14:20 10.8 53 356.1 600 0.0 6.9 24.7 318
14/01/2021 14:30 10.7 52 337.5 600 0.0 6.6 23.7 321
14/01/2021 14:40 10.8 51 315.7 600 0.0 6.7 24.2 323
14/01/2021 14:50 10.7 51 273.7 600 0.0 7.9 28.3 321
14/01/2021 15:00 10.6 51 273.6 600 0.0 6.4 22.9 321
14/01/2021 15:10 10.6 52 247.9 600 0.0 5.9 21.2 318
14/01/2021 15:20 10.6 53 222.8 600 0.0 6.4 23.1 317
14/01/2021 15:30 10.4 53 195.8 578 0.0 6.9 24.7 316
14/01/2021 15:40 10.0 55 129.1 276 0.0 6.5 23.4 314
14/01/2021 15:50 10.3 55 207.9 600 0.0 5.3 19.0 319
14/01/2021 16:00 10.2 54 176.7 600 0.0 6.3 22.5 315
14/01/2021 16:10 9.5 56 62.2 142 0.0 5.9 21.2 315
14/01/2021 16:20 9.0 58 39.9 0 0.0 5.6 20.2 314
14/01/2021 16:30 8.7 60 25.5 0 0.0 5.5 19.9 310
14/01/2021 16:40 8.6 61 13.6 0 0.0 4.7 16.7 315
14/01/2021 16:50 8.5 62 0.0 0 0.0 5.3 19.2 313
14/01/2021 17:00 8.4 63 0.0 0 0.0 5.4 19.3 314
14/01/2021 17:10 8.3 64 0.0 0 0.0 4.3 15.4 317
14/01/2021 17:20 8.2 65 0.0 0 0.0 5.2 18.6 314
14/01/2021 17:30 7.9 66 0.0 0 0.0 5.7 20.6 313
14/01/2021 17:40 7.8 66 0.0 0 0.0 4.6 16.6 316
14/01/2021 17:50 7.7 67 0.0 0 0.0 3.7 13.5 319
14/01/2021 18:00 7.6 68 0.0 0 0.0 3.8 13.7 320
14/01/2021 18:10 7.5 69 0.0 0 0.0 3.6 12.9 324
14/01/2021 18:20 7.4 71 0.0 0 0.0 3.6 12.8 326
14/01/2021 18:30 7.4 72 0.0 0 0.0 3.5 12.5 329
14/01/2021 18:40 7.3 72 0.0 0 0.0 3.7 13.2 329
14/01/2021 18:50 7.4 73 0.0 0 0.0 4.3 15.4 333
14/01/2021 19:00 7.3 73 0.0 0 0.0 3.6 13.1 333
14/01/2021 19:10 7.4 73 0.0 0 0.0 3.3 11.8 326
14/01/2021 19:20 7.5 74 0.0 0 0.0 3.3 12.0 325
14/01/2021 19:30 7.7 74 0.0 0 0.0 3.4 12.4 324
14/01/2021 19:40 7.8 75 0.0 0 0.0 3.5 12.6 326
14/01/2021 19:50 7.8 75 0.0 0 0.0 3.8 13.8 326
14/01/2021 20:00 7.8 75 0.0 0 0.0 4.2 15.0 321
14/01/2021 20:10 7.6 75 0.0 0 0.0 4.7 16.9 322
14/01/2021 20:20 7.5 76 0.0 0 0.0 4.7 16.8 324
14/01/2021 20:30 7.3 76 0.0 0 0.0 4.9 17.6 320
14/01/2021 20:40 6.9 77 0.0 0 0.0 4.5 16.2 317
14/01/2021 20:50 6.9 78 0.0 0 0.0 6.0 21.7 309
14/01/2021 21:00 7.2 78 0.0 0 0.0 6.4 23.0 308
14/01/2021 21:10 7.6 77 0.0 0 0.0 5.5 19.7 312
14/01/2021 21:20 7.7 76 0.0 0 0.0 5.2 18.8 314
14/01/2021 21:30 7.6 77 0.0 0 0.0 5.8 20.9 311
14/01/2021 21:40 7.5 77 0.0 0 0.0 5.8 21.0 309
14/01/2021 21:50 7.4 78 0.0 0 0.0 5.9 21.4 309
14/01/2021 22:00 7.7 78 0.0 0 0.0 6.7 23.9 310
14/01/2021 22:10 8.0 77 0.0 0 0.0 6.9 24.8 311
14/01/2021 22:20 7.8 77 0.0 0 0.0 6.0 21.7 312
14/01/2021 22:30 7.7 79 0.0 0 0.0 6.2 22.1 311
14/01/2021 22:40 7.7 79 0.0 0 0.0 6.1 22.1 309
14/01/2021 22:50 7.6 80 0.0 0 0.0 5.7 20.6 311
14/01/2021 23:00 7.5 80 0.0 0 0.0 5.1 18.2 312
14/01/2021 23:10 7.3 80 0.0 0 0.0 4.7 16.9 311
14/01/2021 23:20 7.4 80 0.0 0 0.0 5.7 20.4 307
14/01/2021 23:30 7.4 80 0.0 0 0.0 6.1 21.9 307
14/01/2021 23:40 7.4 81 0.0 0 0.0 6.2 22.2 306
14/01/2021 23:50 7.4 80 0.0 0 0.0 5.8 20.8 310
Anterior Página 1 de 1 Siguiente

NOTA: Tipo de datos según el color:
   - Valores diarios o 10 minutos correctos
   - Valores diarios calculados a partir de un número de datos 10 minutos menor que 144 y mayor que 120, o de un número de datos semihorarios menor que 48 y mayor que 40 (caso de las estaciones de INTIA Y Ministerio)
   - Valores diez minutos estimados


Contacto        Enlaces        Aviso legal